createdAt,value
2018-12-05T00:02:53.496Z,3.99
2018-12-05T00:07:56.216Z,3.92
2018-12-05T00:12:59.083Z,3.86
2018-12-05T00:18:02.146Z,3.76
2018-12-05T00:23:04.941Z,3.64
2018-12-05T00:28:07.961Z,3.61
2018-12-05T00:33:10.757Z,3.52
2018-12-05T00:38:13.412Z,3.49
2018-12-05T00:43:33.269Z,3.40
2018-12-05T00:48:36.007Z,3.38
2018-12-05T00:53:38.761Z,3.39
2018-12-05T00:58:41.492Z,3.43
2018-12-05T01:03:44.404Z,3.40
2018-12-05T01:08:48.548Z,3.38
2018-12-05T01:13:51.764Z,3.42
2018-12-05T01:18:54.657Z,3.41
2018-12-05T01:23:57.674Z,3.41
2018-12-05T01:29:00.369Z,3.33
2018-12-05T01:34:03.645Z,3.32
2018-12-05T01:39:07.598Z,3.25
2018-12-05T01:44:10.639Z,3.25
2018-12-05T01:49:13.430Z,3.17
2018-12-05T01:54:17.127Z,3.08
2018-12-05T01:59:20.077Z,3.09
2018-12-05T02:04:22.937Z,3.09
2018-12-05T02:09:25.756Z,3.09
2018-12-05T02:14:28.785Z,3.09
2018-12-05T02:19:31.798Z,3.10
2018-12-05T02:24:34.713Z,3.10
2018-12-05T02:29:43.619Z,3.10
2018-12-05T02:34:46.484Z,3.09
2018-12-05T02:39:49.226Z,3.07
2018-12-05T02:44:52.064Z,3.03
2018-12-05T02:49:54.905Z,3.01
2018-12-05T02:54:57.676Z,3.01
2018-12-05T03:00:00.600Z,2.94
2018-12-05T03:05:04.405Z,2.89
2018-12-05T03:10:07.405Z,2.81
2018-12-05T03:15:10.201Z,2.76
2018-12-05T03:20:13.113Z,2.74
2018-12-05T03:25:15.996Z,2.73
2018-12-05T03:30:18.809Z,2.69
2018-12-05T03:35:26.210Z,2.65
2018-12-05T03:40:29.150Z,2.63
2018-12-05T03:45:31.970Z,2.63
2018-12-05T03:50:34.655Z,2.64
2018-12-05T03:55:37.612Z,2.68
2018-12-05T04:00:40.320Z,2.65
2018-12-05T04:05:43.122Z,2.59
2018-12-05T04:10:46.050Z,2.61
2018-12-05T04:15:50.305Z,2.57
2018-12-05T04:20:53.079Z,2.59
2018-12-05T04:25:55.772Z,2.59
2018-12-05T04:30:58.634Z,2.57
2018-12-05T04:36:03.449Z,2.54
2018-12-05T04:41:06.440Z,2.53
2018-12-05T04:46:09.357Z,2.54
2018-12-05T04:51:12.253Z,2.56
2018-12-05T04:56:15.086Z,2.55
2018-12-05T05:01:18.039Z,2.56
2018-12-05T05:06:20.838Z,2.55
2018-12-05T05:11:23.568Z,2.52
2018-12-05T05:16:26.418Z,2.48
2018-12-05T05:21:29.162Z,2.46
2018-12-05T05:26:32.116Z,2.43
2018-12-05T05:31:35.036Z,2.37
2018-12-05T05:36:37.788Z,2.30
2018-12-05T05:41:40.560Z,2.25
2018-12-05T05:46:44.604Z,2.22
2018-12-05T05:51:47.513Z,2.12
2018-12-05T05:56:50.536Z,2.06
2018-12-05T06:01:53.256Z,1.99
2018-12-05T06:06:56.005Z,1.93
2018-12-05T06:11:58.894Z,1.92
2018-12-05T06:17:01.737Z,1.91
2018-12-05T06:22:04.708Z,1.93
2018-12-05T06:27:07.537Z,1.94
2018-12-05T06:32:10.416Z,2.03
2018-12-05T06:37:12.997Z,2.06
2018-12-05T06:42:15.836Z,2.04
2018-12-05T06:47:18.640Z,2.00
2018-12-05T06:52:21.580Z,2.01
2018-12-05T06:57:24.513Z,1.95
2018-12-05T07:02:27.323Z,1.92
2018-12-05T07:07:30.193Z,1.92
2018-12-05T07:12:33.003Z,2.03
2018-12-05T07:17:35.998Z,2.10
2018-12-05T07:22:38.772Z,2.19
2018-12-05T07:27:41.495Z,2.28
2018-12-05T07:32:44.441Z,2.36
2018-12-05T07:37:47.349Z,2.36
2018-12-05T07:42:50.272Z,2.41
2018-12-05T07:47:53.301Z,2.41
2018-12-05T07:52:56.776Z,2.37
2018-12-05T07:57:59.605Z,2.31
2018-12-05T08:03:02.493Z,2.32
2018-12-05T08:08:06.205Z,2.43
2018-12-05T08:13:09.126Z,2.57
2018-12-05T08:18:11.825Z,2.53
2018-12-05T08:23:14.801Z,2.54
2018-12-05T08:28:17.721Z,2.65
2018-12-05T08:33:20.625Z,2.88
2018-12-05T08:38:23.351Z,3.14
2018-12-05T08:43:26.177Z,3.38
2018-12-05T08:48:29.277Z,3.57
2018-12-05T08:53:32.261Z,3.69
2018-12-05T08:58:35.373Z,3.77
2018-12-05T09:03:38.235Z,4.23
2018-12-05T09:08:41.285Z,4.65
2018-12-05T09:13:44.279Z,5.06
2018-12-05T09:18:47.173Z,5.44
2018-12-05T09:23:50.467Z,5.85
2018-12-05T09:28:57.252Z,6.23
2018-12-05T09:33:58.409Z,6.73
2018-12-05T09:39:01.408Z,7.41
2018-12-05T09:44:06.358Z,7.90
2018-12-05T09:49:09.368Z,8.23
2018-12-05T09:54:12.222Z,8.48
2018-12-05T09:59:15.303Z,8.90
2018-12-05T10:04:18.074Z,9.09
2018-12-05T10:09:20.997Z,9.41
2018-12-05T10:14:23.993Z,9.62
2018-12-05T10:19:27.317Z,9.81
2018-12-05T10:24:30.465Z,10.23
2018-12-05T10:29:33.504Z,10.31
2018-12-05T10:34:36.309Z,10.01
2018-12-05T10:39:39.275Z,9.58
2018-12-05T10:44:43.167Z,9.21
2018-12-05T10:49:47.082Z,8.45
2018-12-05T10:54:50.028Z,8.13
2018-12-05T10:59:52.753Z,7.87
2018-12-05T11:05:01.457Z,7.69
2018-12-05T11:10:10.402Z,7.47
2018-12-05T11:15:19.229Z,7.43
2018-12-05T11:20:28.236Z,7.49
2018-12-05T11:25:31.287Z,7.60
2018-12-05T11:30:34.473Z,7.63
2018-12-05T11:35:37.526Z,7.59
2018-12-05T11:40:40.577Z,7.52
2018-12-05T11:45:44.207Z,7.58
2018-12-05T11:50:47.092Z,7.60
2018-12-05T11:55:50.170Z,7.65
2018-12-05T12:00:53.030Z,7.77
2018-12-05T12:05:55.982Z,7.95
2018-12-05T12:11:00.859Z,8.32
2018-12-05T12:16:03.900Z,8.66
2018-12-05T12:21:06.837Z,8.86
2018-12-05T12:26:09.863Z,8.93
2018-12-05T12:31:12.747Z,9.09
2018-12-05T12:36:15.525Z,9.06
2018-12-05T12:41:18.408Z,9.01
2018-12-05T12:46:21.225Z,9.11
2018-12-05T12:51:24.201Z,9.31
2018-12-05T12:56:27.320Z,9.28
2018-12-05T13:01:30.268Z,9.13
2018-12-05T13:06:33.128Z,8.99
2018-12-05T13:11:36.018Z,8.74
2018-12-05T13:16:38.957Z,8.78
2018-12-05T13:21:41.861Z,8.94
2018-12-05T13:26:44.793Z,8.94
2018-12-05T13:31:47.721Z,8.73
2018-12-05T13:36:50.725Z,8.75
2018-12-05T13:41:53.869Z,8.84
2018-12-05T13:46:56.834Z,8.76
2018-12-05T13:52:01.257Z,8.71
2018-12-05T13:57:04.202Z,8.66
2018-12-05T14:02:07.734Z,8.56
2018-12-05T14:07:10.807Z,8.42
2018-12-05T14:12:19.651Z,8.24
2018-12-05T14:17:22.417Z,8.14
2018-12-05T14:22:25.308Z,7.94
2018-12-05T14:27:28.333Z,7.79
2018-12-05T14:32:31.281Z,7.65
2018-12-05T14:37:34.124Z,7.58
2018-12-05T14:42:37.002Z,7.48
2018-12-05T14:47:39.597Z,7.45
2018-12-05T14:52:42.259Z,7.38
2018-12-05T14:57:45.125Z,7.30
2018-12-05T15:02:47.816Z,7.23
2018-12-05T15:07:50.491Z,7.10
2018-12-05T15:12:53.211Z,6.98
2018-12-05T15:17:56.245Z,6.89
2018-12-05T15:22:59.015Z,6.82
2018-12-05T15:28:01.992Z,6.79
2018-12-05T15:33:05.307Z,6.73
2018-12-05T15:38:08.540Z,6.67
2018-12-05T15:43:11.386Z,6.51
2018-12-05T15:48:14.450Z,6.42
2018-12-05T15:53:17.204Z,6.30
2018-12-05T15:58:20.033Z,6.25
2018-12-05T16:03:22.901Z,6.21
2018-12-05T16:08:25.694Z,6.17
2018-12-05T16:13:28.773Z,6.08
2018-12-05T16:18:31.650Z,5.98
2018-12-05T16:23:34.374Z,5.85
2018-12-05T16:28:37.241Z,5.80
2018-12-05T16:33:40.372Z,5.75
2018-12-05T16:38:43.373Z,5.66
2018-12-05T16:43:46.347Z,5.61
2018-12-05T16:48:49.221Z,5.56
2018-12-05T16:53:52.167Z,5.45
2018-12-05T16:58:54.958Z,5.34
2018-12-05T17:03:57.994Z,5.35
2018-12-05T17:09:01.587Z,5.35
2018-12-05T17:14:06.533Z,5.37
2018-12-05T17:19:09.886Z,5.35
2018-12-05T17:24:12.649Z,5.37
2018-12-05T17:29:15.539Z,5.30
2018-12-05T17:34:18.512Z,5.25
2018-12-05T17:39:21.433Z,5.18
2018-12-05T17:44:24.383Z,5.13
2018-12-05T17:49:27.180Z,5.08
2018-12-05T17:54:29.980Z,5.09
2018-12-05T17:59:32.518Z,5.05
2018-12-05T18:04:35.310Z,4.94
2018-12-05T18:09:38.037Z,4.88
2018-12-05T18:14:41.055Z,4.85
2018-12-05T18:19:44.280Z,4.85
2018-12-05T18:24:47.786Z,4.85
2018-12-05T18:29:50.333Z,4.83
2018-12-05T18:34:53.132Z,4.83
2018-12-05T18:39:55.797Z,4.80
2018-12-05T18:44:58.520Z,4.70
2018-12-05T18:50:01.309Z,4.64
2018-12-05T18:55:04.777Z,4.55
2018-12-05T19:00:10.178Z,4.45
2018-12-05T19:05:13.224Z,4.42
2018-12-05T19:10:15.948Z,4.35
2018-12-05T19:15:19.262Z,4.27
2018-12-05T19:20:22.103Z,4.24
2018-12-05T19:25:25.073Z,4.20
2018-12-05T19:30:27.860Z,4.19
2018-12-05T19:35:30.596Z,4.16
2018-12-05T19:40:33.266Z,4.07
2018-12-05T19:45:36.177Z,4.03
2018-12-05T19:50:39.114Z,4.02
2018-12-05T19:55:41.908Z,4.02
2018-12-05T20:00:44.793Z,3.98
2018-12-05T20:05:47.775Z,3.93
2018-12-05T20:10:50.577Z,3.91
2018-12-05T20:15:53.477Z,3.89
2018-12-05T20:20:56.260Z,3.87
2018-12-05T20:25:58.997Z,3.81
2018-12-05T20:31:01.992Z,3.78
2018-12-05T20:36:05.089Z,3.75
2018-12-05T20:41:08.149Z,3.72
2018-12-05T20:46:11.069Z,3.69
2018-12-05T20:51:14.351Z,3.65
2018-12-05T20:56:17.196Z,3.61
2018-12-05T21:01:20.090Z,3.59
2018-12-05T21:06:23.064Z,3.59
2018-12-05T21:11:26.913Z,3.65
2018-12-05T21:16:29.799Z,3.67
2018-12-05T21:21:32.717Z,3.70
2018-12-05T21:26:35.392Z,3.72
2018-12-05T21:31:38.033Z,3.73
2018-12-05T21:36:40.815Z,3.67
2018-12-05T21:41:43.809Z,3.65
2018-12-05T21:46:46.486Z,3.58
2018-12-05T21:51:49.241Z,3.63
2018-12-05T21:56:52.080Z,3.65
2018-12-05T22:01:54.965Z,3.59
2018-12-05T22:06:57.747Z,3.60
2018-12-05T22:12:00.460Z,3.53
2018-12-05T22:17:03.304Z,3.49
2018-12-05T22:22:06.050Z,3.42
2018-12-05T22:27:08.961Z,3.42
2018-12-05T22:32:11.665Z,3.43
2018-12-05T22:37:14.402Z,3.45
2018-12-05T22:42:17.056Z,3.46
2018-12-05T22:47:20.008Z,3.45
2018-12-05T22:52:22.921Z,3.44
2018-12-05T22:57:25.663Z,3.47
2018-12-05T23:02:28.542Z,3.50
2018-12-05T23:07:31.337Z,3.53
2018-12-05T23:12:34.406Z,3.55
2018-12-05T23:17:37.377Z,3.60
2018-12-05T23:22:40.171Z,3.59
2018-12-05T23:27:42.800Z,3.58
2018-12-05T23:32:45.773Z,3.58
2018-12-05T23:37:48.602Z,3.59
2018-12-05T23:42:51.613Z,3.58
2018-12-05T23:47:54.381Z,3.56
2018-12-05T23:52:58.349Z,3.52
2018-12-05T23:58:01.113Z,3.52
